createdAt,value
2017-06-03T00:00:54.579Z,27.44
2017-06-03T00:01:54.570Z,27.57
2017-06-03T00:02:54.323Z,27.59
2017-06-03T00:03:54.326Z,27.5
2017-06-03T00:04:54.606Z,27.57
2017-06-03T00:05:54.602Z,27.54
2017-06-03T00:06:54.669Z,27.55
2017-06-03T00:07:54.623Z,27.6
2017-06-03T00:08:54.626Z,27.62
2017-06-03T00:09:54.737Z,27.75
2017-06-03T00:10:54.649Z,27.63
2017-06-03T00:11:54.656Z,27.6
2017-06-03T00:12:54.664Z,27.74
2017-06-03T00:13:54.676Z,27.69
2017-06-03T00:14:54.683Z,27.7
2017-06-03T00:15:54.480Z,27.65
2017-06-03T00:16:54.702Z,27.54
2017-06-03T00:17:54.708Z,27.55
2017-06-03T00:18:54.408Z,27.49
2017-06-03T00:19:54.725Z,27.5
2017-06-03T00:20:54.738Z,27.5
2017-06-03T00:21:54.746Z,27.51
2017-06-03T00:22:54.807Z,27.59
2017-06-03T00:23:54.809Z,27.62
2017-06-03T00:24:54.770Z,27.46
2017-06-03T00:25:54.831Z,27.51
2017-06-03T00:26:54.790Z,27.57
2017-06-03T00:27:54.174Z,27.63
2017-06-03T00:28:54.803Z,27.74
2017-06-03T00:29:54.499Z,27.5
2017-06-03T00:30:54.817Z,27.51
2017-06-03T00:31:54.829Z,27.57
2017-06-03T00:32:54.842Z,27.51
2017-06-03T00:33:54.846Z,27.51
2017-06-03T00:34:54.856Z,27.43
2017-06-03T00:35:54.246Z,27.55
2017-06-03T00:36:54.872Z,27.54
2017-06-03T00:37:54.883Z,27.51
2017-06-03T00:38:54.576Z,27.55
2017-06-03T00:39:54.590Z,27.63
2017-06-03T00:40:54.974Z,27.57
2017-06-03T00:41:54.608Z,27.63
2017-06-03T00:42:54.925Z,27.51
2017-06-03T00:43:54.933Z,27.75
2017-06-03T00:44:54.945Z,27.75
2017-06-03T00:45:54.644Z,27.69
2017-06-03T00:46:54.962Z,27.67
2017-06-03T00:47:55.042Z,27.65
2017-06-03T00:48:54.668Z,27.63
2017-06-03T00:49:54.992Z,27.69
2017-06-03T00:50:54.684Z,27.51
2017-06-03T00:51:54.382Z,27.51
2017-06-03T00:52:54.703Z,27.55
2017-06-03T00:53:55.023Z,27.57
2017-06-03T00:54:54.768Z,27.57
2017-06-03T00:55:54.726Z,27.59
2017-06-03T00:56:54.423Z,27.6
2017-06-03T00:57:55.061Z,27.63
2017-06-03T00:58:54.759Z,27.57
2017-06-03T00:59:54.762Z,27.54
2017-06-03T01:00:55.136Z,27.66
2017-06-03T01:01:55.093Z,27.63
2017-06-03T01:02:55.124Z,27.55
2017-06-03T01:03:54.800Z,27.72
2017-06-03T01:04:55.118Z,27.72
2017-06-03T01:05:55.175Z,27.69
2017-06-03T01:06:55.140Z,27.63
2017-06-03T01:07:55.142Z,27.67
2017-06-03T01:08:54.538Z,27.74
2017-06-03T01:09:55.164Z,27.69
2017-06-03T01:10:55.192Z,27.63
2017-06-03T01:11:55.182Z,27.67
2017-06-03T01:12:55.187Z,27.67
2017-06-03T01:13:55.251Z,27.67
2017-06-03T01:14:55.207Z,27.72
2017-06-03T01:15:55.219Z,27.69
2017-06-03T01:16:55.276Z,27.66
2017-06-03T01:17:55.239Z,27.63
2017-06-03T01:18:55.295Z,27.67
2017-06-03T01:19:55.252Z,27.7
2017-06-03T01:20:55.262Z,27.66
2017-06-03T01:21:54.957Z,27.72
2017-06-03T01:22:54.971Z,27.77
2017-06-03T01:23:55.317Z,27.72
2017-06-03T01:24:55.300Z,27.72
2017-06-03T01:25:55.312Z,27.69
2017-06-03T01:26:55.313Z,27.75
2017-06-03T01:27:55.379Z,27.6
2017-06-03T01:28:55.337Z,27.75
2017-06-03T01:29:55.082Z,27.69
2017-06-03T01:30:55.040Z,27.69
2017-06-03T01:31:55.411Z,27.74
2017-06-03T01:32:55.368Z,27.69
2017-06-03T01:33:55.378Z,27.63
2017-06-03T01:34:55.073Z,27.65
2017-06-03T01:35:55.087Z,27.55
2017-06-03T01:36:55.144Z,27.55
2017-06-03T01:37:55.410Z,27.54
2017-06-03T01:38:55.428Z,27.62
2017-06-03T01:39:55.429Z,27.57
2017-06-03T01:40:55.438Z,27.54
2017-06-03T01:41:55.448Z,27.49
2017-06-03T01:42:55.145Z,27.51
2017-06-03T01:43:55.156Z,27.54
2017-06-03T01:44:55.177Z,27.49
2017-06-03T01:45:55.484Z,27.4
2017-06-03T01:46:55.494Z,27.37
2017-06-03T01:47:55.504Z,27.32
2017-06-03T01:48:55.511Z,27.47
2017-06-03T01:49:55.257Z,27.39
2017-06-03T01:50:55.634Z,27.39
2017-06-03T01:51:55.538Z,27.44
2017-06-03T01:52:55.541Z,27.36
2017-06-03T01:53:55.555Z,27.49
2017-06-03T01:54:55.567Z,27.63
2017-06-03T01:55:55.568Z,27.47
2017-06-03T01:56:55.579Z,27.44
2017-06-03T01:57:55.589Z,27.5
2017-06-03T01:58:55.598Z,27.59
2017-06-03T01:59:55.605Z,27.57
2017-06-03T02:00:55.914Z,27.5
2017-06-03T02:01:55.626Z,27.46
2017-06-03T02:02:55.681Z,27.25
2017-06-03T02:03:55.644Z,27.36
2017-06-03T02:04:55.651Z,27.34
2017-06-03T02:05:55.660Z,27.4
2017-06-03T02:06:55.355Z,27.46
2017-06-03T02:07:55.415Z,27.4
2017-06-03T02:08:55.375Z,27.4
2017-06-03T02:09:55.692Z,27.41
2017-06-03T02:10:55.701Z,27.39
2017-06-03T02:11:55.709Z,27.43
2017-06-03T02:12:55.721Z,27.24
2017-06-03T02:13:55.413Z,27.43
2017-06-03T02:14:55.737Z,27.4
2017-06-03T02:15:55.435Z,27.34
2017-06-03T02:16:55.439Z,27.43
2017-06-03T02:17:55.760Z,27.43
2017-06-03T02:18:55.771Z,27.37
2017-06-03T02:19:55.517Z,27.34
2017-06-03T02:20:55.845Z,27.21
2017-06-03T02:21:55.843Z,27.25
2017-06-03T02:22:55.850Z,27.41
2017-06-03T02:23:55.501Z,27.46
2017-06-03T02:24:55.506Z,27.55
2017-06-03T02:25:55.829Z,27.51
2017-06-03T02:26:55.217Z,27.47
2017-06-03T02:27:55.844Z,27.43
2017-06-03T02:28:55.233Z,27.43
2017-06-03T02:29:55.859Z,27.34
2017-06-03T02:30:55.559Z,27.39
2017-06-03T02:31:55.574Z,27.54
2017-06-03T02:32:55.890Z,27.5
2017-06-03T02:33:55.900Z,27.55
2017-06-03T02:34:55.910Z,27.37
2017-06-03T02:35:55.918Z,27.49
2017-06-03T02:36:55.930Z,27.57
2017-06-03T02:37:55.940Z,27.55
2017-06-03T02:38:55.932Z,27.51
2017-06-03T02:39:55.640Z,27.67
2017-06-03T02:40:55.650Z,27.57
2017-06-03T02:41:55.973Z,27.43
2017-06-03T02:42:55.980Z,27.57
2017-06-03T02:43:55.678Z,27.57
2017-06-03T02:44:56.061Z,27.59
2017-06-03T02:45:56.054Z,27.54
2017-06-03T02:46:56.018Z,27.62
2017-06-03T02:47:56.081Z,27.62
2017-06-03T02:48:56.033Z,27.59
2017-06-03T02:49:56.044Z,27.59
2017-06-03T02:50:56.060Z,27.57
2017-06-03T02:51:56.060Z,27.54
2017-06-03T02:52:55.759Z,27.47
2017-06-03T02:53:56.128Z,27.5
2017-06-03T02:54:56.101Z,27.57
2017-06-03T02:55:56.097Z,27.49
2017-06-03T02:56:55.844Z,27.25
2017-06-03T02:57:56.213Z,27.44
2017-06-03T02:58:56.173Z,27.39
2017-06-03T02:59:56.132Z,27.36
2017-06-03T03:00:56.142Z,27.39
2017-06-03T03:01:56.147Z,27.5
2017-06-03T03:02:56.159Z,27.55
2017-06-03T03:03:56.224Z,27.59
2017-06-03T03:04:56.172Z,27.51
2017-06-03T03:05:56.184Z,27.47
2017-06-03T03:06:56.192Z,27.43
2017-06-03T03:07:56.200Z,27.5
2017-06-03T03:08:56.211Z,27.57
2017-06-03T03:09:55.956Z,27.59
2017-06-03T03:10:56.225Z,27.59
2017-06-03T03:11:56.236Z,27.62
2017-06-03T03:12:56.295Z,27.5
2017-06-03T03:13:55.944Z,27.54
2017-06-03T03:14:55.953Z,27.57
2017-06-03T03:15:55.961Z,27.51
2017-06-03T03:16:56.333Z,27.5
2017-06-03T03:17:55.666Z,27.37
2017-06-03T03:18:55.985Z,27.39
2017-06-03T03:19:56.408Z,27.37
2017-06-03T03:20:56.318Z,27.39
2017-06-03T03:21:56.316Z,27.39
2017-06-03T03:22:56.381Z,27.57
2017-06-03T03:23:56.342Z,27.43
2017-06-03T03:24:56.353Z,27.44
2017-06-03T03:25:56.049Z,27.49
2017-06-03T03:26:56.415Z,27.49
2017-06-03T03:27:55.753Z,27.4
2017-06-03T03:28:56.385Z,27.47
2017-06-03T03:29:56.400Z,27.5
2017-06-03T03:30:56.400Z,27.41
2017-06-03T03:31:56.413Z,27.41
2017-06-03T03:32:56.416Z,27.39
2017-06-03T03:33:56.434Z,27.41
2017-06-03T03:34:56.125Z,27.39
2017-06-03T03:35:56.134Z,27.51
2017-06-03T03:36:56.504Z,27.5
2017-06-03T03:37:56.459Z,27.47
2017-06-03T03:38:56.471Z,27.51
2017-06-03T03:39:56.477Z,27.5
2017-06-03T03:40:56.178Z,27.44
2017-06-03T03:41:56.799Z,27.5
2017-06-03T03:42:56.505Z,27.44
2017-06-03T03:43:56.511Z,27.41
2017-06-03T03:44:56.522Z,27.4
2017-06-03T03:45:56.227Z,27.17
2017-06-03T03:46:56.546Z,27.22
2017-06-03T03:47:56.601Z,27.36
2017-06-03T03:48:56.246Z,27.43
2017-06-03T03:49:56.570Z,27.47
2017-06-03T03:50:56.575Z,27.36
2017-06-03T03:51:56.579Z,27.46
2017-06-03T03:52:56.594Z,27.4
2017-06-03T03:53:56.440Z,27.39
2017-06-03T03:54:56.619Z,27.31
2017-06-03T03:55:56.616Z,27.28
2017-06-03T03:56:56.623Z,27.13
2017-06-03T03:57:56.684Z,27.1
2017-06-03T03:58:56.644Z,27.29
2017-06-03T03:59:56.392Z,27.28
2017-06-03T04:00:56.660Z,27.44
2017-06-03T04:01:56.718Z,27.44
2017-06-03T04:02:56.676Z,27.44
2017-06-03T04:03:56.691Z,27.5
2017-06-03T04:04:56.691Z,27.47
2017-06-03T04:05:56.389Z,27.5
2017-06-03T04:06:56.399Z,27.43
2017-06-03T04:07:56.721Z,27.55
2017-06-03T04:08:56.734Z,27.49
2017-06-03T04:09:56.737Z,27.51
2017-06-03T04:10:56.747Z,27.49
2017-06-03T04:11:56.754Z,27.49
2017-06-03T04:12:57.067Z,27.57
2017-06-03T04:13:56.768Z,27.57
2017-06-03T04:14:56.787Z,27.51
2017-06-03T04:15:56.841Z,27.54
2017-06-03T04:16:56.487Z,27.54
2017-06-03T04:17:56.859Z,27.43
2017-06-03T04:18:56.507Z,27.44
2017-06-03T04:19:56.210Z,27.54
2017-06-03T04:20:56.882Z,27.63
2017-06-03T04:21:56.846Z,27.57
2017-06-03T04:22:56.849Z,27.54
2017-06-03T04:23:56.862Z,27.5
2017-06-03T04:24:56.869Z,27.54
2017-06-03T04:25:56.930Z,27.5
2017-06-03T04:26:56.629Z,27.54
2017-06-03T04:27:56.582Z,27.51
2017-06-03T04:28:56.905Z,27.55
2017-06-03T04:29:56.919Z,27.57
2017-06-03T04:30:56.925Z,27.65
2017-06-03T04:31:56.934Z,27.54
2017-06-03T04:32:56.632Z,27.47
2017-06-03T04:33:56.638Z,27.55
2017-06-03T04:34:56.959Z,27.62
2017-06-03T04:35:57.016Z,27.59
2017-06-03T04:36:56.977Z,27.51
2017-06-03T04:37:56.984Z,27.59
2017-06-03T04:38:57.017Z,27.6
2017-06-03T04:39:57.023Z,27.54
2017-06-03T04:40:57.009Z,27.5
2017-06-03T04:41:57.025Z,27.47
2017-06-03T04:42:57.023Z,27.44
2017-06-03T04:43:56.725Z,27.43
2017-06-03T04:44:56.734Z,27.4
2017-06-03T04:45:56.743Z,27.44
2017-06-03T04:46:56.748Z,27.44
2017-06-03T04:47:57.070Z,27.44
2017-06-03T04:48:56.770Z,27.5
2017-06-03T04:49:57.088Z,27.51
2017-06-03T04:50:57.093Z,27.59
2017-06-03T04:51:57.105Z,27.47
2017-06-03T04:52:57.164Z,27.5
2017-06-03T04:53:57.118Z,27.47
2017-06-03T04:54:57.129Z,27.43
2017-06-03T04:55:57.142Z,27.49
2017-06-03T04:56:57.196Z,27.51
2017-06-03T04:57:57.208Z,27.46
2017-06-03T04:58:56.861Z,27.5
2017-06-03T04:59:56.865Z,27.5
2017-06-03T05:00:57.172Z,27.5
2017-06-03T05:01:57.193Z,27.59
2017-06-03T05:02:56.628Z,27.51
2017-06-03T05:03:57.212Z,27.66
2017-06-03T05:04:56.905Z,27.55
2017-06-03T05:05:57.228Z,27.59
2017-06-03T05:06:57.240Z,27.59
2017-06-03T05:07:57.243Z,27.5
2017-06-03T05:08:56.949Z,27.55
2017-06-03T05:09:57.314Z,27.51
2017-06-03T05:10:57.324Z,27.72
2017-06-03T05:11:57.330Z,27.54
2017-06-03T05:12:57.290Z,27.65
2017-06-03T05:13:57.297Z,27.75
2017-06-03T05:14:57.306Z,27.72
2017-06-03T05:15:57.006Z,27.55
2017-06-03T05:16:57.325Z,27.63
2017-06-03T05:17:57.332Z,27.78
2017-06-03T05:18:57.029Z,27.63
2017-06-03T05:19:57.357Z,27.59
2017-06-03T05:20:57.460Z,27.41
2017-06-03T05:21:57.063Z,27.47
2017-06-03T05:22:57.377Z,27.43
2017-06-03T05:23:57.384Z,27.41
2017-06-03T05:24:57.392Z,27.5
2017-06-03T05:25:57.458Z,27.49
2017-06-03T05:26:57.410Z,27.59
2017-06-03T05:27:57.109Z,27.5
2017-06-03T05:28:57.125Z,27.4
2017-06-03T05:29:57.786Z,27.55
2017-06-03T05:30:57.445Z,27.55
2017-06-03T05:31:57.143Z,27.62
2017-06-03T05:32:57.152Z,27.55
2017-06-03T05:33:57.162Z,27.54
2017-06-03T05:34:57.578Z,27.54
2017-06-03T05:35:57.491Z,27.51
2017-06-03T05:36:57.237Z,27.55
2017-06-03T05:37:57.504Z,27.63
2017-06-03T05:38:57.514Z,27.54
2017-06-03T05:39:57.212Z,27.5
2017-06-03T05:40:57.583Z,27.54
2017-06-03T05:41:57.592Z,27.62
2017-06-03T05:42:57.549Z,27.63
2017-06-03T05:43:57.245Z,27.62
2017-06-03T05:44:57.254Z,27.62
2017-06-03T05:45:57.576Z,27.57
2017-06-03T05:46:57.323Z,27.57
2017-06-03T05:47:57.591Z,27.39
2017-06-03T05:48:57.654Z,27.43
2017-06-03T05:49:57.614Z,27.31
2017-06-03T05:50:57.622Z,27.39
2017-06-03T05:51:57.627Z,27.46
2017-06-03T05:52:57.324Z,27.51
2017-06-03T05:53:57.336Z,27.57
2017-06-03T05:54:57.342Z,27.55
2017-06-03T05:55:57.663Z,27.46
2017-06-03T05:56:57.675Z,27.55
2017-06-03T05:57:57.678Z,27.62
2017-06-03T05:58:57.690Z,27.65
2017-06-03T05:59:57.696Z,27.66
2017-06-03T06:00:57.393Z,27.72
2017-06-03T06:01:57.716Z,27.65
2017-06-03T06:02:57.723Z,27.54
2017-06-03T06:03:57.734Z,27.7
2017-06-03T06:04:57.789Z,27.66
2017-06-03T06:05:57.799Z,27.74
2017-06-03T06:06:57.758Z,27.69
2017-06-03T06:07:57.506Z,27.72
2017-06-03T06:08:57.466Z,27.7
2017-06-03T06:09:57.786Z,27.74
2017-06-03T06:10:57.794Z,27.75
2017-06-03T06:11:57.810Z,27.6
2017-06-03T06:12:57.503Z,27.6
2017-06-03T06:13:57.202Z,27.65
2017-06-03T06:14:58.130Z,27.65
2017-06-03T06:15:57.840Z,27.69
2017-06-03T06:16:57.902Z,27.72
2017-06-03T06:17:57.856Z,27.67
2017-06-03T06:18:57.868Z,27.77
2017-06-03T06:19:57.877Z,27.78
2017-06-03T06:20:57.939Z,27.67
2017-06-03T06:21:57.895Z,27.57
2017-06-03T06:22:57.951Z,27.54
2017-06-03T06:23:57.912Z,27.66
2017-06-03T06:24:57.928Z,27.6
2017-06-03T06:25:57.933Z,27.55
2017-06-03T06:26:57.946Z,27.57
2017-06-03T06:27:57.639Z,27.66
2017-06-03T06:28:57.968Z,27.66
2017-06-03T06:29:57.968Z,27.51
2017-06-03T06:30:57.980Z,27.74
2017-06-03T06:31:57.986Z,27.72
2017-06-03T06:32:57.739Z,27.63
2017-06-03T06:33:58.003Z,27.69
2017-06-03T06:34:58.019Z,27.55
2017-06-03T06:35:58.072Z,27.51
2017-06-03T06:36:57.723Z,27.51
2017-06-03T06:37:58.093Z,27.69
2017-06-03T06:38:58.053Z,27.62
2017-06-03T06:39:58.057Z,27.55
2017-06-03T06:40:58.068Z,27.63
2017-06-03T06:41:58.076Z,27.69
2017-06-03T06:42:58.131Z,27.57
2017-06-03T06:43:58.096Z,27.46
2017-06-03T06:44:57.482Z,27.65
2017-06-03T06:45:58.211Z,27.69
2017-06-03T06:46:58.120Z,27.7
2017-06-03T06:47:58.176Z,27.69
2017-06-03T06:48:58.134Z,27.75
2017-06-03T06:49:57.841Z,27.85
2017-06-03T06:50:57.843Z,28
2017-06-03T06:51:57.953Z,28.09
2017-06-03T06:52:58.173Z,27.93
2017-06-03T06:53:58.208Z,27.93
2017-06-03T06:54:58.193Z,27.96
2017-06-03T06:55:58.199Z,27.92
2017-06-03T06:56:58.205Z,27.87
2017-06-03T06:57:57.903Z,27.87
2017-06-03T06:58:58.223Z,27.93
2017-06-03T06:59:58.233Z,27.82
2017-06-03T07:00:58.292Z,27.85
2017-06-03T07:01:58.252Z,27.88
2017-06-03T07:02:58.261Z,27.96
2017-06-03T07:03:58.273Z,28.03
2017-06-03T07:04:57.968Z,27.99
2017-06-03T07:05:58.345Z,27.97
2017-06-03T07:06:57.989Z,27.87
2017-06-03T07:07:58.321Z,27.88
2017-06-03T07:08:58.005Z,27.84
2017-06-03T07:09:58.375Z,27.9
2017-06-03T07:10:58.339Z,27.84
2017-06-03T07:11:58.345Z,27.93
2017-06-03T07:12:58.650Z,27.81
2017-06-03T07:13:58.413Z,27.82
2017-06-03T07:14:58.058Z,27.87
2017-06-03T07:15:58.380Z,27.92
2017-06-03T07:16:58.389Z,27.75
2017-06-03T07:17:58.086Z,27.65
2017-06-03T07:18:58.095Z,27.82
2017-06-03T07:19:58.103Z,27.85
2017-06-03T07:20:58.113Z,27.85
2017-06-03T07:21:58.520Z,27.87
2017-06-03T07:22:58.442Z,27.81
2017-06-03T07:23:58.451Z,27.9
2017-06-03T07:24:58.462Z,28
2017-06-03T07:25:58.158Z,28.03
2017-06-03T07:26:58.485Z,27.92
2017-06-03T07:27:58.177Z,27.9
2017-06-03T07:28:58.493Z,28.04
2017-06-03T07:29:58.504Z,27.92
2017-06-03T07:30:58.249Z,27.85
2017-06-03T07:31:58.209Z,27.9
2017-06-03T07:32:58.535Z,27.9
2017-06-03T07:33:58.538Z,28
2017-06-03T07:34:58.543Z,28.07
2017-06-03T07:35:58.602Z,28.14
2017-06-03T07:36:58.569Z,28.19
2017-06-03T07:37:58.576Z,28.12
2017-06-03T07:38:58.586Z,28.11
2017-06-03T07:39:58.592Z,28.18
2017-06-03T07:40:58.287Z,28.19
2017-06-03T07:41:58.607Z,28.11
2017-06-03T07:42:58.672Z,28.14
2017-06-03T07:43:58.627Z,28.3
2017-06-03T07:44:58.689Z,28.36
2017-06-03T07:45:58.720Z,28.41
2017-06-03T07:46:58.654Z,28.36
2017-06-03T07:47:58.352Z,28.3
2017-06-03T07:48:58.364Z,28.14
2017-06-03T07:49:58.370Z,28.04
2017-06-03T07:50:58.691Z,28.11
2017-06-03T07:51:58.697Z,28.09
2017-06-03T07:52:58.758Z,28.11
2017-06-03T07:53:58.407Z,28.21
2017-06-03T07:54:58.724Z,28.19
2017-06-03T07:55:58.426Z,28.19
2017-06-03T07:56:58.481Z,28.33
2017-06-03T07:57:58.759Z,28.17
2017-06-03T07:58:58.765Z,28.11
2017-06-03T07:59:58.775Z,28.14
2017-06-03T08:00:58.519Z,28.27
2017-06-03T08:01:58.816Z,28.44
2017-06-03T08:02:58.796Z,28.58
2017-06-03T08:03:58.804Z,28.55
2017-06-03T08:04:58.862Z,28.46
2017-06-03T08:05:58.825Z,28.48
2017-06-03T08:06:58.890Z,28.55
2017-06-03T08:07:58.842Z,28.68
2017-06-03T08:08:58.279Z,28.73
2017-06-03T08:09:58.861Z,28.83
2017-06-03T08:10:58.871Z,28.85
2017-06-03T08:11:58.880Z,28.78
2017-06-03T08:12:58.576Z,28.9
2017-06-03T08:13:58.898Z,28.92
2017-06-03T08:14:59.009Z,29.02
2017-06-03T08:15:58.296Z,28.98
2017-06-03T08:16:58.626Z,29.12
2017-06-03T08:17:58.937Z,28.7
2017-06-03T08:18:58.638Z,28.78
2017-06-03T08:19:58.955Z,28.58
2017-06-03T08:20:59.013Z,28.71
2017-06-03T08:21:58.709Z,28.76
2017-06-03T08:22:58.719Z,28.81
2017-06-03T08:23:58.681Z,28.83
2017-06-03T08:24:58.686Z,28.83
2017-06-03T08:25:59.009Z,28.85
2017-06-03T08:26:58.717Z,28.86
2017-06-03T08:27:59.029Z,28.74
2017-06-03T08:28:58.721Z,28.74
2017-06-03T08:29:58.743Z,28.78
2017-06-03T08:31:13.978Z,28.83
2017-06-03T08:31:58.758Z,28.86
2017-06-03T08:32:58.767Z,28.78
2017-06-03T08:33:58.772Z,28.78
2017-06-03T08:34:59.142Z,28.66
2017-06-03T08:36:13.677Z,28.93
2017-06-03T08:36:59.215Z,28.93
2017-06-03T08:37:59.122Z,28.96
2017-06-03T08:38:58.821Z,29
2017-06-03T08:39:58.837Z,29.11
2017-06-03T08:40:59.151Z,29.05
2017-06-03T08:41:59.159Z,28.96
2017-06-03T08:42:58.908Z,29.05
2017-06-03T08:44:59.234Z,29.16
2017-06-03T08:45:59.196Z,29.11
2017-06-03T08:46:59.207Z,29.04
2017-06-03T08:48:13.788Z,29.09
2017-06-03T08:48:58.616Z,29.04
2017-06-03T08:49:58.924Z,29.06
2017-06-03T08:50:58.943Z,29.02
2017-06-03T08:52:13.827Z,28.98
2017-06-03T08:52:59.265Z,28.98
2017-06-03T08:53:59.324Z,28.96
2017-06-03T08:54:59.285Z,29.14
2017-06-03T08:55:58.674Z,29.02
2017-06-03T08:56:59.304Z,29.06
2017-06-03T08:57:59.365Z,28.8
2017-06-03T08:58:59.328Z,28.62
2017-06-03T09:00:59.344Z,28.71
2017-06-03T09:01:59.404Z,28.89
2017-06-03T09:02:59.435Z,28.98
2017-06-03T09:03:59.061Z,29.04
2017-06-03T09:04:59.383Z,29
2017-06-03T09:05:58.828Z,29.16
2017-06-03T09:07:59.412Z,29.19
2017-06-03T09:08:59.115Z,29.09
2017-06-03T09:09:59.127Z,29
2017-06-03T09:11:59.148Z,29.04
2017-06-03T09:12:59.466Z,29.05
2017-06-03T09:13:59.474Z,29
2017-06-03T09:14:59.174Z,29.09
2017-06-03T09:16:14.068Z,29
2017-06-03T09:16:59.536Z,29.02
2017-06-03T09:17:59.202Z,28.93
2017-06-03T09:18:59.527Z,28.92
2017-06-03T09:19:59.534Z,28.96
2017-06-03T09:20:59.545Z,28.98
2017-06-03T09:22:28.701Z,29.04
2017-06-03T09:22:59.562Z,29.09
2017-06-03T09:23:59.572Z,29.16
2017-06-03T09:24:59.583Z,29.23
2017-06-03T09:26:14.168Z,29.26
2017-06-03T09:26:58.985Z,29.18
2017-06-03T09:27:59.639Z,29.23
2017-06-03T09:28:59.361Z,29.15
2017-06-03T09:29:59.325Z,29.18
2017-06-03T09:30:59.389Z,29.12
2017-06-03T09:31:59.669Z,29.11
2017-06-03T09:32:59.664Z,29.14
2017-06-03T09:34:59.374Z,29
2017-06-03T09:35:59.746Z,29.08
2017-06-03T09:37:59.715Z,29.15
2017-06-03T09:38:59.723Z,29.19
2017-06-03T09:39:59.735Z,29.18
2017-06-03T09:40:59.799Z,29.15
2017-06-03T09:41:59.448Z,29.11
2017-06-03T09:42:59.765Z,28.96
2017-06-03T09:43:59.775Z,29.04
2017-06-03T09:44:59.892Z,29
2017-06-03T09:45:59.796Z,28.95
2017-06-03T09:46:59.858Z,29.02
2017-06-03T09:47:59.814Z,29.06
2017-06-03T09:48:59.618Z,29.21
2017-06-03T09:49:59.575Z,29.19
2017-06-03T09:50:59.896Z,29.16
2017-06-03T09:52:14.121Z,29.23
2017-06-03T09:52:59.868Z,29.18
2017-06-03T09:53:59.568Z,29.16
2017-06-03T09:54:59.575Z,29.16
2017-06-03T09:55:59.951Z,29.21
2017-06-03T09:56:59.912Z,29.18
2017-06-03T09:57:59.606Z,29.23
2017-06-03T09:59:14.501Z,29.24
2017-06-03T10:01:29.094Z,29.09
2017-06-03T10:02:14.530Z,29.18
2017-06-03T10:03:59.976Z,29.08
2017-06-03T10:06:14.571Z,29.23
2017-06-03T10:07:00.011Z,29.23
2017-06-03T10:07:59.754Z,29.19
2017-06-03T10:09:00.030Z,29.19
2017-06-03T10:10:00.037Z,29.27
2017-06-03T10:10:59.740Z,29.24
2017-06-03T10:13:00.094Z,29.15
2017-06-03T10:14:00.079Z,29.28
2017-06-03T10:14:59.466Z,29.26
2017-06-03T10:16:00.151Z,29.23
2017-06-03T10:17:00.115Z,29.33
2017-06-03T10:18:00.122Z,29.24
2017-06-03T10:19:00.182Z,29.23
2017-06-03T10:20:00.242Z,29.21
2017-06-03T10:20:59.895Z,29.24
2017-06-03T10:22:14.427Z,29.31
2017-06-03T10:22:59.863Z,29.26
2017-06-03T10:24:00.182Z,29.23
2017-06-03T10:25:00.194Z,29.23
2017-06-03T10:26:00.210Z,29.28
2017-06-03T10:27:00.266Z,29.33
2017-06-03T10:29:00.238Z,29.39
2017-06-03T10:31:00.286Z,29.41
2017-06-03T10:32:14.840Z,29.36
2017-06-03T10:33:00.325Z,29.42
2017-06-03T10:34:00.291Z,29.34
2017-06-03T10:34:59.989Z,29.34
2017-06-03T10:36:00.020Z,29.31
2017-06-03T10:37:00.324Z,29.26
2017-06-03T10:38:00.019Z,29.18
2017-06-03T10:39:00.339Z,29.24
2017-06-03T10:40:00.347Z,29.37
2017-06-03T10:41:14.933Z,29.37
2017-06-03T10:42:14.940Z,29.26
2017-06-03T10:43:00.378Z,29.3
2017-06-03T10:44:00.392Z,29.26
2017-06-03T10:45:00.400Z,29.24
2017-06-03T10:46:00.104Z,29.28
2017-06-03T10:47:00.111Z,29.33
2017-06-03T10:49:00.442Z,29.39
2017-06-03T10:50:00.451Z,29.43
2017-06-03T10:51:00.465Z,29.28
2017-06-03T10:52:00.471Z,29.24
2017-06-03T10:53:00.486Z,29.23
2017-06-03T10:54:00.522Z,29.26
2017-06-03T10:55:00.241Z,29.3
2017-06-03T10:56:00.521Z,29.31
2017-06-03T10:57:00.269Z,29.28
2017-06-03T10:58:00.276Z,29.31
2017-06-03T10:59:00.237Z,29.28
2017-06-03T11:00:00.607Z,29.26
2017-06-03T11:01:00.566Z,29.15
2017-06-03T11:02:14.840Z,29.21
2017-06-03T11:03:00.586Z,29.26
2017-06-03T11:03:59.975Z,29.21
2017-06-03T11:05:00.608Z,29.18
2017-06-03T11:06:00.671Z,29.19
2017-06-03T11:07:14.893Z,29.19
2017-06-03T11:08:15.210Z,29.19
2017-06-03T11:09:14.914Z,29.21
2017-06-03T11:10:00.660Z,29.24
2017-06-03T11:11:15.243Z,29.12
2017-06-03T11:12:00.682Z,29.21
2017-06-03T11:13:00.689Z,29.18
2017-06-03T11:14:00.712Z,29.12
2017-06-03T11:15:00.709Z,29.08
2017-06-03T11:16:00.723Z,29.16
2017-06-03T11:18:15.318Z,29.18
2017-06-03T11:19:00.444Z,29.12
2017-06-03T11:20:00.765Z,29.21
2017-06-03T11:21:15.347Z,29.16
2017-06-03T11:22:00.474Z,29.12
2017-06-03T11:23:00.534Z,29.19
2017-06-03T11:24:00.810Z,29.18
2017-06-03T11:25:15.403Z,29.02
2017-06-03T11:26:00.825Z,29
2017-06-03T11:27:00.838Z,29.06
2017-06-03T11:28:00.846Z,29.08
2017-06-03T11:29:00.852Z,29.04
2017-06-03T11:30:15.487Z,29.04
2017-06-03T11:31:00.927Z,28.98
2017-06-03T11:32:00.574Z,29.14
2017-06-03T11:33:15.157Z,29.19
2017-06-03T11:34:00.902Z,29.09
2017-06-03T11:35:00.964Z,29.19
2017-06-03T11:36:15.497Z,29.12
2017-06-03T11:37:00.942Z,29.15
2017-06-03T11:38:15.522Z,29.21
2017-06-03T11:39:00.642Z,29.18
2017-06-03T11:40:15.230Z,29.02
2017-06-03T11:41:00.993Z,28.96
2017-06-03T11:42:00.675Z,28.92
2017-06-03T11:43:00.992Z,28.89
2017-06-03T11:44:00.412Z,29.04
2017-06-03T11:45:01.018Z,29.18
2017-06-03T11:46:01.034Z,29.18
2017-06-03T11:47:01.035Z,29.19
2017-06-03T11:48:15.618Z,29.16
2017-06-03T11:49:00.743Z,29.16
2017-06-03T11:50:00.445Z,29.19
2017-06-03T11:51:01.074Z,29.31
2017-06-03T11:52:15.655Z,29.21
2017-06-03T11:53:01.097Z,29.18
2017-06-03T11:54:15.734Z,29.16
2017-06-03T11:55:00.910Z,29.14
2017-06-03T11:56:01.137Z,29.14
2017-06-03T11:57:00.827Z,29.08
2017-06-03T11:58:00.831Z,29.18
2017-06-03T11:59:01.152Z,29.09
2017-06-03T12:00:15.787Z,29.11
2017-06-03T12:01:01.221Z,29.12
2017-06-03T12:02:01.220Z,29.16
2017-06-03T12:03:01.198Z,29.18
2017-06-03T12:04:00.891Z,29.16
2017-06-03T12:05:00.955Z,29.23
2017-06-03T12:06:00.966Z,29.23
2017-06-03T12:07:00.929Z,29.19
2017-06-03T12:08:00.934Z,29.23
2017-06-03T12:09:01.263Z,29.26
2017-06-03T12:10:01.315Z,29.18
2017-06-03T12:11:01.381Z,29.26
2017-06-03T12:12:01.338Z,29.3
2017-06-03T12:14:01.357Z,29.27
2017-06-03T12:15:01.366Z,29.31
2017-06-03T12:16:01.018Z,29.42
2017-06-03T12:17:15.600Z,29.36
2017-06-03T12:18:01.347Z,29.36
2017-06-03T12:19:01.097Z,29.42
2017-06-03T12:21:01.428Z,29.37
2017-06-03T12:22:01.392Z,29.39
2017-06-03T12:23:01.404Z,29.42
2017-06-03T12:24:15.673Z,29.48
2017-06-03T12:25:15.992Z,29.41
2017-06-03T12:26:01.124Z,29.48
2017-06-03T12:27:01.493Z,29.37
2017-06-03T12:28:01.143Z,29.39
2017-06-03T12:29:01.464Z,29.39
2017-06-03T12:30:01.480Z,29.27
2017-06-03T12:31:01.174Z,29.3
2017-06-03T12:33:01.511Z,29.3
2017-06-03T12:34:01.524Z,29.31
2017-06-03T12:35:01.575Z,29.39
2017-06-03T12:36:01.232Z,29.42
2017-06-03T12:37:01.547Z,29.37
2017-06-03T12:38:01.559Z,29.39
2017-06-03T12:39:01.259Z,29.39
2017-06-03T12:40:01.320Z,29.31
2017-06-03T12:41:01.281Z,29.37
2017-06-03T12:44:16.196Z,29.33
2017-06-03T12:45:01.319Z,29.31
2017-06-03T12:46:01.383Z,29.3
2017-06-03T12:47:01.657Z,29.34
2017-06-03T12:48:01.664Z,29.42
2017-06-03T12:49:01.363Z,29.42
2017-06-03T12:50:01.376Z,29.46
2017-06-03T12:51:01.441Z,29.43
2017-06-03T12:52:01.460Z,29.43
2017-06-03T12:53:01.412Z,29.39
2017-06-03T12:54:01.728Z,29.42
2017-06-03T12:55:01.741Z,29.41
2017-06-03T12:56:01.801Z,29.43
2017-06-03T12:57:01.760Z,29.42
2017-06-03T12:58:01.771Z,29.41
2017-06-03T12:59:01.470Z,29.41
2017-06-03T13:00:01.844Z,29.36
2017-06-03T13:01:16.425Z,29.26
2017-06-03T13:02:01.816Z,29.31
2017-06-03T13:03:01.880Z,29.34
2017-06-03T13:04:01.837Z,29.41
2017-06-03T13:06:01.912Z,29.24
2017-06-03T13:07:16.491Z,29.3
2017-06-03T13:08:01.615Z,29.23
2017-06-03T13:09:01.939Z,29.26
2017-06-03T13:11:01.906Z,29.28
2017-06-03T13:12:01.972Z,29.27
2017-06-03T13:13:01.931Z,29.26
2017-06-03T13:14:01.990Z,29.26
2017-06-03T13:15:01.947Z,29.24
2017-06-03T13:16:01.960Z,29.28
2017-06-03T13:17:01.689Z,29.19
2017-06-03T13:18:02.087Z,29.27